• Join FlightAware (Why Join?)
  • Login
  • US Flag 
06:46PM EDT


 

Airport Tracker/Info


-or-


 

Live Flight TrackerFlight Track Log ✈ JBU1781 ✈ 06-May-2013 ✈ KMCO - MYNN / NAS

Flight Track Log - Related Links

Times and Time Zones

All times are in EDT time to prevent confusion due to time zone crossing. See the JBU1781 flight status page for this flight to view local times or setup timezone preferences in your user account.

Time Position Orientation Groundspeed Altitude Reporting Facility
EDT Latitude Longitude Course Direction KTS MPH feet Rate Location/Type
02:04PM 28.4067 -81.3219 128° Southeast 150 173 1,100  Level Miami Center
02:05PM 28.3661 -81.2778 136° Southeast 177 204 2,600 2,100 Climbing Miami Center
02:06PM 28.3181 -81.2122 130° Southeast 214 246 5,300 2,940 Climbing Miami Center
02:07PM 27.4992 -80.1942 121° Southeast  Level FlightAware Approximate
02:07PM 28.2725 -81.1328 123° Southeast 290 334 8,500  Level Miami Center
02:08PM 27.4637 -80.1290 128° Southeast  Level FlightAware Approximate
02:08PM 28.2314 -81.0439 118° Southeast 310 357 11,000  Level Miami Center
02:09PM 27.4220 -80.0687 128° Southeast  Level FlightAware Approximate
02:10PM 27.3803 -80.0084 128° Southeast  Level FlightAware Approximate
02:10PM 28.1759 -80.9472 127° Southeast  Level FlightAware Approximate
02:10PM 28.1178 -80.8492 127° Southeast 368 423 15,600  Level Miami Center
02:12PM 28.0617 -80.7694 129° Southeast 392 451 17,700 2,220 Climbing Miami Center
02:12PM 27.9733 -80.6419 128° Southeast 410 472 20,100 2,160 Climbing Miami Center
02:13PM 27.9028 -80.5408 128° Southeast 410 472 21,900 1,440 Climbing Miami Center
02:14PM 27.8342 -80.4447 129° Southeast 421 484 23,000 540 Climbing Miami Center
02:15PM 27.7575 -80.3367 129° Southeast 431 496 23,000  Level Miami Center
02:18PM 27.6349 -80.1675 129° Southeast  Level FlightAware Approximate
02:22PM 27.2206 -79.5778 129° Southeast 431 496 23,000  Level Miami Center
02:23PM 27.1514 -79.4828 129° Southeast 431 496 23,000  Level Miami Center
02:24PM 27.0781 -79.3761 128° Southeast 431 496 23,000  Level Miami Center
02:25PM 27.2170 -79.5827 129° Southeast  Level FlightAware Approximate
02:25PM 27.0006 -79.2697 129° Southeast 431 496 23,000  Level Miami Center
02:26PM 27.1569 -79.4997 129° Southeast  Level FlightAware Approximate
02:26PM 26.9269 -79.1678 129° Southeast 431 496 23,000  Level Miami Center
02:27PM 27.0968 -79.4167 129° Southeast  Level FlightAware Approximate
02:28PM 27.0550 -79.3591 129° Southeast  Level FlightAware Approximate
02:29PM 26.8401 -79.0525 130° Southeast  Level FlightAware Approximate
02:29PM 26.6997 -78.8564 130° Southeast 426 490 23,000  Level Miami Center
02:32PM 26.6146 -78.7398 129° Southeast  Level FlightAware Approximate
02:32PM 26.4633 -78.5392 129° Southeast 424 488 23,000  Level Miami Center
02:33PM 26.3894 -78.4361 129° Southeast 431 496 23,000  Level Miami Center
02:35PM 26.3478 -78.3755 127° Southeast  Level FlightAware Approximate
02:36PM 26.1603 -78.1275 131° Southeast 426 490 23,000  Level Miami Center
02:37PM 26.0839 -78.0247 130° Southeast 431 496 23,000 -900 Level Miami Center
02:38PM 26.0117 -77.9225 128° Southeast 425 489 21,200 -2,040 Descending Miami Center
02:39PM 25.9350 -77.8292 132° Southeast 415 478 19,000 -2,040 Descending Miami Center
02:42PM 26.0487 -77.9817 131° Southeast  Level FlightAware Approximate
02:42PM 25.8461 -77.7168 131° Southeast  Level FlightAware Approximate
02:42PM 25.7400 -77.5600 131° Southeast 372 428 13,100  Level Miami Center
02:43PM 25.6733 -77.4953 139° Southeast 343 395 12,600 -780 Descending Miami Center
02:44PM 25.5919 -77.4833 172° South 290 334 11,600 -1,020 Descending Miami Center
02:46PM 25.5239 -77.4753 174° South  Level FlightAware Approximate
02:53PM 25.0617 -77.4557 170° South  Level FlightAware Approximate
02:54PM 25.0333 -77.4500 170° South  Level FlightAware Approximate
02:55PM 25.0390 -77.4662 170° South  Level Estimated
02:56PM 25.0390 -77.4662 170° South  Level Estimated
02:57PM 25.0390 -77.4662 170° South  Level Estimated
02:58PM 25.0390 -77.4662 170° South  Level Estimated
02:59PM 25.0390 -77.4662 170° South  Level Estimated
03:00PM 25.0390 -77.4662 170° South  Level Estimated
03:01PM 25.0390 -77.4662 170° South  Level Estimated
03:02PM 25.0390 -77.4662 170° South  Level Estimated
03:03PM 25.0390 -77.4662 170° South  Level Estimated
03:04PM 25.0390 -77.4662 170° South  Level Estimated
03:05PM 25.0390 -77.4662 170° South  Level Estimated
03:06PM 25.0390 -77.4662 170° South  Level Estimated
03:07PM 25.0390 -77.4662 170° South  Level Estimated
03:08PM 25.0390 -77.4662 170° South  Level Estimated
03:09PM 25.0390 -77.4662 170° South  Level Estimated
03:10PM 25.0390 -77.4662 170° South  Level Estimated